sensor_id;sensor_type;location;lat;lon;timestamp;pressure;altitude;pressure_sealevel;temperature;humidity
67457;BME280;54319;52.038;4.640;2022-10-31T00:02:20;102110.31;;;10.98;100.00
67457;BME280;54319;52.038;4.640;2022-10-31T00:04:47;102102.44;;;10.98;100.00
67457;BME280;54319;52.038;4.640;2022-10-31T00:07:13;102107.69;;;10.96;100.00
67457;BME280;54319;52.038;4.640;2022-10-31T00:09:42;102105.94;;;10.95;100.00
67457;BME280;54319;52.038;4.640;2022-10-31T00:12:08;102106.78;;;10.92;100.00
67457;BME280;54319;52.038;4.640;2022-10-31T00:14:37;102115.53;;;10.93;100.00
67457;BME280;54319;52.038;4.640;2022-10-31T00:17:03;102111.16;;;10.92;100.00
67457;BME280;54319;52.038;4.640;2022-10-31T00:19:31;102123.41;;;10.91;100.00
67457;BME280;54319;52.038;4.640;2022-10-31T00:21:57;102119.88;;;10.88;100.00
67457;BME280;54319;52.038;4.640;2022-10-31T00:24:25;102118.06;;;10.84;100.00
67457;BME280;54319;52.038;4.640;2022-10-31T00:26:51;102122.44;;;10.80;100.00
67457;BME280;54319;52.038;4.640;2022-10-31T00:29:18;102122.41;;;10.77;100.00
67457;BME280;54319;52.038;4.640;2022-10-31T00:31:47;102122.38;;;10.74;100.00
67457;BME280;54319;52.038;4.640;2022-10-31T00:34:14;102125.84;;;10.73;100.00
67457;BME280;54319;52.038;4.640;2022-10-31T00:36:41;102120.59;;;10.73;100.00
67457;BME280;54319;52.038;4.640;2022-10-31T00:39:08;102128.47;;;10.73;100.00
67457;BME280;54319;52.038;4.640;2022-10-31T00:41:34;102126.72;;;10.70;100.00
67457;BME280;54319;52.038;4.640;2022-10-31T00:44:02;102124.97;;;10.69;100.00
67457;BME280;54319;52.038;4.640;2022-10-31T00:46:31;102131.03;;;10.67;100.00
67457;BME280;54319;52.038;4.640;2022-10-31T00:49:01;102134.53;;;10.63;100.00
67457;BME280;54319;52.038;4.640;2022-10-31T00:51:36;102127.50;;;10.59;100.00
67457;BME280;54319;52.038;4.640;2022-10-31T00:54:04;102136.22;;;10.59;100.00
67457;BME280;54319;52.038;4.640;2022-10-31T00:56:32;102130.97;;;10.58;100.00
67457;BME280;54319;52.038;4.640;2022-10-31T00:58:59;102130.09;;;10.59;100.00
67457;BME280;54319;52.038;4.640;2022-10-31T01:01:26;102129.22;;;10.57;100.00
67457;BME280;54319;52.038;4.640;2022-10-31T01:03:56;102128.34;;;10.56;100.00
67457;BME280;54319;52.038;4.640;2022-10-31T01:06:24;102123.97;;;10.57;100.00
67457;BME280;54319;52.038;4.640;2022-10-31T01:08:54;102111.72;;;10.54;100.00
67457;BME280;54319;52.038;4.640;2022-10-31T01:11:22;102106.53;;;10.59;100.00
67457;BME280;54319;52.038;4.640;2022-10-31T01:13:50;102111.75;;;10.59;100.00
67457;BME280;54319;52.038;4.640;2022-10-31T01:16:21;102117.81;;;10.53;100.00
67457;BME280;54319;52.038;4.640;2022-10-31T01:18:49;102119.47;;;10.43;100.00
67457;BME280;54319;52.038;4.640;2022-10-31T01:21:18;102117.66;;;10.38;100.00
67457;BME280;54319;52.038;4.640;2022-10-31T01:23:48;102116.72;;;10.31;100.00
67457;BME280;54319;52.038;4.640;2022-10-31T01:26:17;102116.63;;;10.25;100.00
67457;BME280;54319;52.038;4.640;2022-10-31T01:28:46;102105.19;;;10.18;100.00
67457;BME280;54319;52.038;4.640;2022-10-31T01:31:18;102109.53;;;10.15;100.00
67457;BME280;54319;52.038;4.640;2022-10-31T01:33:48;102107.69;;;10.07;100.00
67457;BME280;54319;52.038;4.640;2022-10-31T01:36:20;102104.19;;;10.04;100.00
67457;BME280;54319;52.038;4.640;2022-10-31T01:38:50;102105.03;;;10.01;100.00
67457;BME280;54319;52.038;4.640;2022-10-31T01:41:19;102098.91;;;10.01;100.00
67457;BME280;54319;52.038;4.640;2022-10-31T01:43:50;102103.22;;;9.99;100.00
67457;BME280;54319;52.038;4.640;2022-10-31T01:46:20;102104.94;;;9.97;100.00
67457;BME280;54319;52.038;4.640;2022-10-31T01:48:57;102089.25;;;9.95;100.00
67457;BME280;54319;52.038;4.640;2022-10-31T01:51:29;102090.09;;;9.94;100.00
67457;BME280;54319;52.038;4.640;2022-10-31T01:54:02;102090.09;;;9.94;100.00
67457;BME280;54319;52.038;4.640;2022-10-31T01:56:33;102083.13;;;9.93;100.00
67457;BME280;54319;52.038;4.640;2022-10-31T01:59:04;102088.28;;;9.87;100.00
67457;BME280;54319;52.038;4.640;2022-10-31T02:01:32;102082.97;;;9.81;100.00
67457;BME280;54319;52.038;4.640;2022-10-31T02:04:11;102090.72;;;9.75;100.00
67457;BME280;54319;52.038;4.640;2022-10-31T02:06:41;102091.56;;;9.72;100.00
67457;BME280;54319;52.038;4.640;2022-10-31T02:09:12;102079.34;;;9.69;100.00
67457;BME280;54319;52.038;4.640;2022-10-31T02:11:40;102081.13;;;9.70;100.00
67457;BME280;54319;52.038;4.640;2022-10-31T02:14:14;102082.84;;;9.71;100.00
67457;BME280;54319;52.038;4.640;2022-10-31T02:16:54;102094.19;;;9.72;100.00
67457;BME280;54319;52.038;4.640;2022-10-31T02:19:29;102089.84;;;9.73;100.00
67457;BME280;54319;52.038;4.640;2022-10-31T02:22:02;102095.97;;;9.73;100.00
67457;BME280;54319;52.038;4.640;2022-10-31T02:24:45;102089.84;;;9.71;100.00
67457;BME280;54319;52.038;4.640;2022-10-31T02:27:33;102103.75;;;9.70;100.00
67457;BME280;54319;52.038;4.640;2022-10-31T02:30:14;102095.03;;;9.69;100.00
67457;BME280;54319;52.038;4.640;2022-10-31T02:33:02;102088.06;;;9.68;100.00
67457;BME280;54319;52.038;4.640;2022-10-31T02:35:40;102095.00;;;9.65;100.00
67457;BME280;54319;52.038;4.640;2022-10-31T02:38:19;102089.72;;;9.63;100.00
67457;BME280;54319;52.038;4.640;2022-10-31T02:40:53;102089.72;;;9.62;100.00
67457;BME280;54319;52.038;4.640;2022-10-31T02:43:30;102086.22;;;9.61;100.00
67457;BME280;54319;52.038;4.640;2022-10-31T02:46:06;102085.41;;;9.64;100.00
67457;BME280;54319;52.038;4.640;2022-10-31T02:48:46;102086.25;;;9.64;100.00
67457;BME280;54319;52.038;4.640;2022-10-31T02:51:15;102085.38;;;9.65;100.00
67457;BME280;54319;52.038;4.640;2022-10-31T02:53:43;102085.41;;;9.67;100.00
67457;BME280;54319;52.038;4.640;2022-10-31T02:56:12;102088.91;;;9.67;100.00
67457;BME280;54319;52.038;4.640;2022-10-31T02:58:42;102093.31;;;9.68;100.00
67457;BME280;54319;52.038;4.640;2022-10-31T03:01:55;102084.53;;;9.68;100.00
67457;BME280;54319;52.038;4.640;2022-10-31T03:04:48;102081.09;;;9.69;100.00
67457;BME280;54319;52.038;4.640;2022-10-31T03:07:22;102081.13;;;9.70;100.00
67457;BME280;54319;52.038;4.640;2022-10-31T03:09:59;102074.09;;;9.69;100.00
67457;BME280;54319;52.038;4.640;2022-10-31T03:12:30;102074.06;;;9.66;100.00
67457;BME280;54319;52.038;4.640;2022-10-31T03:15:10;102080.13;;;9.62;100.00
67457;BME280;54319;52.038;4.640;2022-10-31T03:17:45;102080.09;;;9.61;100.00
67457;BME280;54319;52.038;4.640;2022-10-31T03:20:17;102087.03;;;9.57;100.00
67457;BME280;54319;52.038;4.640;2022-10-31T03:22:48;102083.53;;;9.57;100.00
67457;BME280;54319;52.038;4.640;2022-10-31T03:25:16;102085.28;;;9.56;100.00
67457;BME280;54319;52.038;4.640;2022-10-31T03:27:44;102084.41;;;9.57;100.00
67457;BME280;54319;52.038;4.640;2022-10-31T03:30:14;102081.81;;;9.59;100.00
67457;BME280;54319;52.038;4.640;2022-10-31T03:32:43;102080.91;;;9.55;100.00
67457;BME280;54319;52.038;4.640;2022-10-31T03:35:17;102077.34;;;9.50;100.00
67457;BME280;54319;52.038;4.640;2022-10-31T03:37:53;102082.56;;;9.47;100.00
67457;BME280;54319;52.038;4.640;2022-10-31T03:40:24;102089.53;;;9.46;100.00
67457;BME280;54319;52.038;4.640;2022-10-31T03:42:57;102090.41;;;9.47;100.00
67457;BME280;54319;52.038;4.640;2022-10-31T03:45:27;102093.88;;;9.47;100.00
67457;BME280;54319;52.038;4.640;2022-10-31T03:47:56;102088.69;;;9.49;100.00
67457;BME280;54319;52.038;4.640;2022-10-31T03:50:31;102078.25;;;9.52;100.00
67457;BME280;54319;52.038;4.640;2022-10-31T03:53:09;102076.56;;;9.57;100.00
67457;BME280;54319;52.038;4.640;2022-10-31T03:55:41;102077.44;;;9.56;100.00
67457;BME280;54319;52.038;4.640;2022-10-31T03:58:24;102078.31;;;9.55;100.00
67457;BME280;54319;52.038;4.640;2022-10-31T04:00:54;102076.56;;;9.57;100.00
67457;BME280;54319;52.038;4.640;2022-10-31T04:03:25;102075.69;;;9.55;100.00
67457;BME280;54319;52.038;4.640;2022-10-31T04:06:02;102073.91;;;9.54;100.00
67457;BME280;54319;52.038;4.640;2022-10-31T04:08:33;102074.75;;;9.52;100.00
67457;BME280;54319;52.038;4.640;2022-10-31T04:11:05;102083.44;;;9.49;100.00
67457;BME280;54319;52.038;4.640;2022-10-31T04:13:37;102079.94;;;9.47;100.00
67457;BME280;54319;52.038;4.640;2022-10-31T04:16:10;102087.78;;;9.47;100.00
67457;BME280;54319;52.038;4.640;2022-10-31T04:18:41;102086.88;;;9.45;100.00
67457;BME280;54319;52.038;4.640;2022-10-31T04:21:09;102082.44;;;9.39;100.00
67457;BME280;54319;52.038;4.640;2022-10-31T04:23:40;102085.06;;;9.41;100.00
67457;BME280;54319;52.038;4.640;2022-10-31T04:26:08;102092.06;;;9.42;100.00
67457;BME280;54319;52.038;4.640;2022-10-31T04:28:37;102091.09;;;9.34;100.00
67457;BME280;54319;52.038;4.640;2022-10-31T04:31:04;102087.50;;;9.28;100.00
67457;BME280;54319;52.038;4.640;2022-10-31T04:33:31;102086.59;;;9.26;100.00
67457;BME280;54319;52.038;4.640;2022-10-31T04:35:57;102091.81;;;9.23;100.00
67457;BME280;54319;52.038;4.640;2022-10-31T04:38:26;102086.53;;;9.20;100.00
67457;BME280;54319;52.038;4.640;2022-10-31T04:40:52;102080.34;;;9.14;100.00
67457;BME280;54319;52.038;4.640;2022-10-31T04:43:20;102085.56;;;9.12;100.00
67457;BME280;54319;52.038;4.640;2022-10-31T04:45:46;102075.94;;;9.11;100.00
67457;BME280;54319;52.038;4.640;2022-10-31T04:48:14;102083.03;;;9.18;100.00
67457;BME280;54319;52.038;4.640;2022-10-31T04:50:40;102085.56;;;9.15;100.00
67457;BME280;54319;52.038;4.640;2022-10-31T04:53:08;102079.44;;;9.12;100.00
67457;BME280;54319;52.038;4.640;2022-10-31T04:55:36;102080.22;;;9.06;100.00
67457;BME280;54319;52.038;4.640;2022-10-31T04:58:04;102074.91;;;9.00;100.00
67457;BME280;54319;52.038;4.640;2022-10-31T05:00:31;102079.19;;;8.95;100.00
67457;BME280;54319;52.038;4.640;2022-10-31T05:02:58;102079.94;;;8.89;100.00
67457;BME280;54319;52.038;4.640;2022-10-31T05:05:27;102078.25;;;8.90;100.00
67457;BME280;54319;52.038;4.640;2022-10-31T05:07:55;102083.41;;;8.86;100.00
67457;BME280;54319;52.038;4.640;2022-10-31T05:10:23;102081.59;;;8.82;100.00
67457;BME280;54319;52.038;4.640;2022-10-31T05:12:53;102084.13;;;8.76;100.00
67457;BME280;54319;52.038;4.640;2022-10-31T05:15:22;102086.69;;;8.72;100.00
67457;BME280;54319;52.038;4.640;2022-10-31T05:17:49;102079.59;;;8.66;100.00
67457;BME280;54319;52.038;4.640;2022-10-31T05:20:18;102070.13;;;8.73;100.00
67457;BME280;54319;52.038;4.640;2022-10-31T05:22:47;102063.19;;;8.75;100.00
67457;BME280;54319;52.038;4.640;2022-10-31T05:25:15;102059.69;;;8.73;100.00
67457;BME280;54319;52.038;4.640;2022-10-31T05:27:44;102062.22;;;8.68;100.00
67457;BME280;54319;52.038;4.640;2022-10-31T05:30:15;102066.50;;;8.63;100.00
67457;BME280;54319;52.038;4.640;2022-10-31T05:32:45;102062.91;;;8.58;100.00
67457;BME280;54319;52.038;4.640;2022-10-31T05:35:13;102056.69;;;8.51;100.00
67457;BME280;54319;52.038;4.640;2022-10-31T05:37:41;102053.19;;;8.48;100.00
67457;BME280;54319;52.038;4.640;2022-10-31T05:40:10;102048.84;;;8.48;100.00
67457;BME280;54319;52.038;4.640;2022-10-31T05:42:38;102052.38;;;8.53;100.00
67457;BME280;54319;52.038;4.640;2022-10-31T05:45:06;102055.94;;;8.57;100.00
67457;BME280;54319;52.038;4.640;2022-10-31T05:47:35;102055.00;;;8.53;100.00
67457;BME280;54319;52.038;4.640;2022-10-31T05:50:04;102050.56;;;8.49;100.00
67457;BME280;54319;52.038;4.640;2022-10-31T05:52:33;102047.88;;;8.44;100.00
67457;BME280;54319;52.038;4.640;2022-10-31T05:55:00;102058.31;;;8.43;100.00
67457;BME280;54319;52.038;4.640;2022-10-31T05:57:28;102052.25;;;8.44;100.00
67457;BME280;54319;52.038;4.640;2022-10-31T05:59:56;102050.47;;;8.41;100.00
67457;BME280;54319;52.038;4.640;2022-10-31T06:02:23;102051.22;;;8.37;100.00
67457;BME280;54319;52.038;4.640;2022-10-31T06:04:55;102045.94;;;8.34;100.00
67457;BME280;54319;52.038;4.640;2022-10-31T06:07:22;102045.13;;;8.37;100.00
67457;BME280;54319;52.038;4.640;2022-10-31T06:09:49;102052.19;;;8.42;100.00
67457;BME280;54319;52.038;4.640;2022-10-31T06:12:16;102051.38;;;8.43;100.00
67457;BME280;54319;52.038;4.640;2022-10-31T06:14:43;102050.59;;;8.51;100.00
67457;BME280;54319;52.038;4.640;2022-10-31T06:17:10;102050.00;;;8.67;100.00
67457;BME280;54319;52.038;4.640;2022-10-31T06:19:39;102049.25;;;8.76;100.00
67457;BME280;54319;52.038;4.640;2022-10-31T06:22:08;102045.84;;;8.80;100.00
67457;BME280;54319;52.038;4.640;2022-10-31T06:24:38;102047.63;;;8.82;100.00
67457;BME280;54319;52.038;4.640;2022-10-31T06:27:07;102059.84;;;8.83;100.00
67457;BME280;54319;52.038;4.640;2022-10-31T06:29:34;102054.56;;;8.80;100.00
67457;BME280;54319;52.038;4.640;2022-10-31T06:32:01;102058.06;;;8.81;100.00
67457;BME280;54319;52.038;4.640;2022-10-31T06:34:28;102055.41;;;8.79;100.00
67457;BME280;54319;52.038;4.640;2022-10-31T06:36:54;102060.66;;;8.79;100.00
67457;BME280;54319;52.038;4.640;2022-10-31T06:39:27;102062.38;;;8.79;100.00
67457;BME280;54319;52.038;4.640;2022-10-31T06:41:53;102056.28;;;8.78;100.00
67457;BME280;54319;52.038;4.640;2022-10-31T06:44:20;102052.91;;;8.85;100.00
67457;BME280;54319;52.038;4.640;2022-10-31T06:46:47;102061.66;;;8.87;100.00
67457;BME280;54319;52.038;4.640;2022-10-31T06:49:16;102051.25;;;8.92;100.00
67457;BME280;54319;52.038;4.640;2022-10-31T06:51:42;102053.06;;;8.96;100.00
67457;BME280;54319;52.038;4.640;2022-10-31T06:54:09;102059.22;;;9.00;100.00
67457;BME280;54319;52.038;4.640;2022-10-31T06:56:40;102053.97;;;9.00;100.00
67457;BME280;54319;52.038;4.640;2022-10-31T06:59:11;102058.38;;;9.01;100.00
67457;BME280;54319;52.038;4.640;2022-10-31T07:01:39;102058.41;;;9.02;100.00
67457;BME280;54319;52.038;4.640;2022-10-31T07:04:07;102065.41;;;9.05;100.00
67457;BME280;54319;52.038;4.640;2022-10-31T07:06:34;102073.28;;;9.08;100.00
67457;BME280;54319;52.038;4.640;2022-10-31T07:09:01;102070.69;;;9.11;100.00
67457;BME280;54319;52.038;4.640;2022-10-31T07:11:28;102066.44;;;9.16;100.00
67457;BME280;54319;52.038;4.640;2022-10-31T07:13:57;102074.31;;;9.19;100.00
67457;BME280;54319;52.038;4.640;2022-10-31T07:16:23;102064.72;;;9.20;100.00
67457;BME280;54319;52.038;4.640;2022-10-31T07:18:51;102077.00;;;9.22;100.00
67457;BME280;54319;52.038;4.640;2022-10-31T07:21:18;102078.75;;;9.26;100.00
67457;BME280;54319;52.038;4.640;2022-10-31T07:23:47;102076.22;;;9.29;100.00
67457;BME280;54319;52.038;4.640;2022-10-31T07:26:16;102076.31;;;9.36;100.00
67457;BME280;54319;52.038;4.640;2022-10-31T07:28:45;102082.47;;;9.41;100.00
67457;BME280;54319;52.038;4.640;2022-10-31T07:31:13;102086.88;;;9.45;100.00
67457;BME280;54319;52.038;4.640;2022-10-31T07:33:43;102080.03;;;9.53;100.00
67457;BME280;54319;52.038;4.640;2022-10-31T07:36:35;102074.84;;;9.58;100.00
67457;BME280;54319;52.038;4.640;2022-10-31T07:39:02;102075.75;;;9.61;100.00
67457;BME280;54319;52.038;4.640;2022-10-31T07:41:29;102082.75;;;9.62;100.00
67457;BME280;54319;52.038;4.640;2022-10-31T07:43:57;102085.41;;;9.64;100.00
67457;BME280;54319;52.038;4.640;2022-10-31T07:46:25;102084.56;;;9.66;100.00
67457;BME280;54319;52.038;4.640;2022-10-31T07:48:52;102077.59;;;9.68;100.00
67457;BME280;54319;52.038;4.640;2022-10-31T07:51:19;102089.84;;;9.73;100.00
67457;BME280;54319;52.038;4.640;2022-10-31T07:53:49;102081.19;;;9.78;100.00
67457;BME280;54319;52.038;4.640;2022-10-31T07:56:16;102086.44;;;9.81;100.00
67457;BME280;54319;52.038;4.640;2022-10-31T07:58:53;102084.69;;;9.79;100.00
67457;BME280;54319;52.038;4.640;2022-10-31T08:01:20;102074.22;;;9.79;100.00
67457;BME280;54319;52.038;4.640;2022-10-31T08:04:06;102076.81;;;9.77;100.00
67457;BME280;54319;52.038;4.640;2022-10-31T08:06:33;102079.44;;;9.77;100.00
67457;BME280;54319;52.038;4.640;2022-10-31T08:09:00;102077.66;;;9.75;100.00
67457;BME280;54319;52.038;4.640;2022-10-31T08:11:27;102077.72;;;9.79;100.00
67457;BME280;54319;52.038;4.640;2022-10-31T08:13:56;102074.22;;;9.79;100.00
67457;BME280;54319;52.038;4.640;2022-10-31T08:16:23;102075.13;;;9.82;100.00
67457;BME280;54319;52.038;4.640;2022-10-31T08:18:53;102063.75;;;9.80;100.00
67457;BME280;54319;52.038;4.640;2022-10-31T08:21:22;102066.41;;;9.82;100.00
67457;BME280;54319;52.038;4.640;2022-10-31T08:23:49;102065.59;;;9.86;100.00
67457;BME280;54319;52.038;4.640;2022-10-31T08:26:17;102072.63;;;9.93;100.00
67457;BME280;54319;52.038;4.640;2022-10-31T08:28:44;102082.28;;;9.97;100.00
67457;BME280;54319;52.038;4.640;2022-10-31T08:31:11;102082.28;;;9.97;100.00
67457;BME280;54319;52.038;4.640;2022-10-31T08:33:38;102077.09;;;10.02;100.00
67457;BME280;54319;52.038;4.640;2022-10-31T08:36:05;102081.50;;;10.07;100.00
67457;BME280;54319;52.038;4.640;2022-10-31T08:38:33;102075.47;;;10.13;100.00
67457;BME280;54319;52.038;4.640;2022-10-31T08:41:00;102079.94;;;10.22;100.00
67457;BME280;54319;52.038;4.640;2022-10-31T08:43:27;102077.41;;;10.29;100.00
67457;BME280;54319;52.038;4.640;2022-10-31T08:45:54;102077.53;;;10.42;100.00
67457;BME280;54319;52.038;4.640;2022-10-31T08:48:27;102064.59;;;10.59;100.00
67457;BME280;54319;52.038;4.640;2022-10-31T08:50:56;102058.56;;;10.72;100.00
67457;BME280;54319;52.038;4.640;2022-10-31T08:53:23;102058.66;;;10.84;100.00
67457;BME280;54319;52.038;4.640;2022-10-31T08:55:54;102054.38;;;10.99;100.00
67457;BME280;54319;52.038;4.640;2022-10-31T08:58:24;102050.09;;;11.13;100.00
67457;BME280;54319;52.038;4.640;2022-10-31T09:00:54;102049.28;;;11.23;100.00
67457;BME280;54319;52.038;4.640;2022-10-31T09:03:25;102042.34;;;11.39;100.00
67457;BME280;54319;52.038;4.640;2022-10-31T09:05:55;102045.88;;;11.46;100.00
67457;BME280;54319;52.038;4.640;2022-10-31T09:08:23;102038.94;;;11.63;100.00
67457;BME280;54319;52.038;4.640;2022-10-31T09:10:49;102044.34;;;11.91;100.00
67457;BME280;54319;52.038;4.640;2022-10-31T09:13:20;102036.47;;;12.05;100.00
67457;BME280;54319;52.038;4.640;2022-10-31T09:15:48;102026.88;;;12.24;100.00
67457;BME280;54319;52.038;4.640;2022-10-31T09:18:17;102026.00;;;12.17;100.00
67457;BME280;54319;52.038;4.640;2022-10-31T09:20:48;102025.13;;;12.38;100.00
67457;BME280;54319;52.038;4.640;2022-10-31T09:23:18;102022.50;;;12.47;100.00
67457;BME280;54319;52.038;4.640;2022-10-31T09:25:50;102019.88;;;12.56;100.00
67457;BME280;54319;52.038;4.640;2022-10-31T09:28:23;102019.88;;;12.66;100.00
67457;BME280;54319;52.038;4.640;2022-10-31T09:30:51;102019.84;;;12.81;100.00
67457;BME280;54319;52.038;4.640;2022-10-31T09:33:19;102015.44;;;12.88;100.00
67457;BME280;54319;52.038;4.640;2022-10-31T09:35:46;102004.94;;;12.83;100.00
67457;BME280;54319;52.038;4.640;2022-10-31T09:38:15;102007.59;;;12.80;100.00
67457;BME280;54319;52.038;4.640;2022-10-31T09:40:46;101999.66;;;12.86;100.00
67457;BME280;54319;52.038;4.640;2022-10-31T09:43:37;102003.16;;;12.84;100.00
67457;BME280;54319;52.038;4.640;2022-10-31T09:46:13;102005.81;;;12.91;100.00
67457;BME280;54319;52.038;4.640;2022-10-31T09:48:53;101991.75;;;12.97;100.00
67457;BME280;54319;52.038;4.640;2022-10-31T09:51:25;101987.34;;;13.05;100.00
67457;BME280;54319;52.038;4.640;2022-10-31T09:53:59;101989.94;;;13.10;100.00
67457;BME280;54319;52.038;4.640;2022-10-31T09:56:28;101981.16;;;13.17;100.00
67457;BME280;54319;52.038;4.640;2022-10-31T09:59:01;101987.25;;;13.24;100.00
67457;BME280;54319;52.038;4.640;2022-10-31T10:01:40;101991.69;;;13.29;100.00
67457;BME280;54319;52.038;4.640;2022-10-31T10:04:30;101983.75;;;13.41;100.00
67457;BME280;54319;52.038;4.640;2022-10-31T10:06:58;101984.56;;;13.47;100.00
67457;BME280;54319;52.038;4.640;2022-10-31T10:09:29;101982.84;;;13.41;100.00
67457;BME280;54319;52.038;4.640;2022-10-31T10:12:04;101981.91;;;13.51;100.00
67457;BME280;54319;52.038;4.640;2022-10-31T10:14:46;101971.34;;;13.57;100.00
67457;BME280;54319;52.038;4.640;2022-10-31T10:17:25;101968.72;;;13.56;100.00
67457;BME280;54319;52.038;4.640;2022-10-31T10:20:16;101969.59;;;13.56;100.00
67457;BME280;54319;52.038;4.640;2022-10-31T10:22:49;101960.81;;;13.56;100.00
67457;BME280;54319;52.038;4.640;2022-10-31T10:25:22;101955.53;;;13.60;100.00
67457;BME280;54319;52.038;4.640;2022-10-31T10:27:57;101947.59;;;13.65;100.00
67457;BME280;54319;52.038;4.640;2022-10-31T10:30:28;101944.09;;;13.66;100.00
67457;BME280;54319;52.038;4.640;2022-10-31T10:33:00;101939.63;;;13.74;100.00
67457;BME280;54319;52.038;4.640;2022-10-31T10:35:31;101945.72;;;13.86;100.00
67457;BME280;54319;52.038;4.640;2022-10-31T10:38:02;101944.69;;;14.03;100.00
67457;BME280;54319;52.038;4.640;2022-10-31T10:40:30;101933.13;;;14.20;100.00
67457;BME280;54319;52.038;4.640;2022-10-31T10:43:22;101921.56;;;14.36;100.00
67457;BME280;54319;52.038;4.640;2022-10-31T10:45:55;101916.94;;;14.60;100.00
67457;BME280;54319;52.038;4.640;2022-10-31T10:48:50;101907.88;;;14.85;99.71
67457;BME280;54319;52.038;4.640;2022-10-31T10:51:21;101909.53;;;14.94;99.06
67457;BME280;54319;52.038;4.640;2022-10-31T10:54:02;101902.53;;;14.93;98.87
67457;BME280;54319;52.038;4.640;2022-10-31T10:56:49;101908.59;;;14.98;98.43
67457;BME280;54319;52.038;4.640;2022-10-31T10:59:21;101906.03;;;14.94;97.87
67457;BME280;54319;52.038;4.640;2022-10-31T11:01:50;101907.81;;;14.90;98.15
67457;BME280;54319;52.038;4.640;2022-10-31T11:04:33;101900.81;;;14.89;98.15
67457;BME280;54319;52.038;4.640;2022-10-31T11:07:04;101900.75;;;14.92;98.88
67457;BME280;54319;52.038;4.640;2022-10-31T11:09:32;101895.41;;;15.00;97.70
67457;BME280;54319;52.038;4.640;2022-10-31T11:12:07;101890.94;;;15.05;97.90
67457;BME280;54319;52.038;4.640;2022-10-31T11:14:49;101894.50;;;15.01;97.70
67457;BME280;54319;52.038;4.640;2022-10-31T11:17:27;101899.66;;;15.10;98.03
67457;BME280;54319;52.038;4.640;2022-10-31T11:20:05;101895.09;;;15.23;96.96
67457;BME280;54319;52.038;4.640;2022-10-31T11:22:33;101894.13;;;15.29;96.54
67457;BME280;54319;52.038;4.640;2022-10-31T11:25:19;101902.78;;;15.38;96.78
67457;BME280;54319;52.038;4.640;2022-10-31T11:27:47;101891.34;;;15.39;96.59
67457;BME280;54319;52.038;4.640;2022-10-31T11:30:24;101883.50;;;15.33;96.72
67457;BME280;54319;52.038;4.640;2022-10-31T11:32:51;101869.44;;;15.31;96.82
67457;BME280;54319;52.038;4.640;2022-10-31T11:35:21;101875.59;;;15.33;96.45
67457;BME280;54319;52.038;4.640;2022-10-31T11:37:52;101871.19;;;15.32;96.59
67457;BME280;54319;52.038;4.640;2022-10-31T11:40:22;101869.47;;;15.30;96.52
67457;BME280;54319;52.038;4.640;2022-10-31T11:42:55;101860.81;;;15.20;97.26
67457;BME280;54319;52.038;4.640;2022-10-31T11:45:32;101856.47;;;15.16;97.38
67457;BME280;54319;52.038;4.640;2022-10-31T11:48:19;101851.31;;;15.06;97.67
67457;BME280;54319;52.038;4.640;2022-10-31T11:50:54;101842.63;;;15.00;98.17
67457;BME280;54319;52.038;4.640;2022-10-31T11:53:28;101831.16;;;15.01;98.25
67457;BME280;54319;52.038;4.640;2022-10-31T11:56:10;101828.56;;;14.96;98.77
67457;BME280;54319;52.038;4.640;2022-10-31T11:58:39;101827.66;;;14.99;98.91
67457;BME280;54319;52.038;4.640;2022-10-31T12:01:20;101827.63;;;15.02;99.39
67457;BME280;54319;52.038;4.640;2022-10-31T12:03:57;101836.34;;;15.07;99.84
67457;BME280;54319;52.038;4.640;2022-10-31T12:06:33;101838.75;;;15.24;99.28
67457;BME280;54319;52.038;4.640;2022-10-31T12:09:18;101816.56;;;15.34;98.72
67457;BME280;54319;52.038;4.640;2022-10-31T12:12:02;101805.06;;;15.38;98.49
67457;BME280;54319;52.038;4.640;2022-10-31T12:14:37;101807.63;;;15.44;98.48
67457;BME280;54319;52.038;4.640;2022-10-31T12:17:14;101801.34;;;15.52;97.77
67457;BME280;54319;52.038;4.640;2022-10-31T12:19:54;101788.81;;;15.64;96.65
67457;BME280;54319;52.038;4.640;2022-10-31T12:22:32;101779.91;;;15.70;96.15
67457;BME280;54319;52.038;4.640;2022-10-31T12:25:23;101765.81;;;15.71;96.28
67457;BME280;54319;52.038;4.640;2022-10-31T12:28:02;101758.75;;;15.73;96.11
67457;BME280;54319;52.038;4.640;2022-10-31T12:30:40;101755.16;;;15.76;96.94
67457;BME280;54319;52.038;4.640;2022-10-31T12:33:27;101751.56;;;15.80;96.41
67457;BME280;54319;52.038;4.640;2022-10-31T12:36:08;101740.13;;;15.79;96.27
67457;BME280;54319;52.038;4.640;2022-10-31T12:38:49;101725.13;;;15.81;96.52
67457;BME280;54319;52.038;4.640;2022-10-31T12:41:31;101711.91;;;15.81;96.57
67457;BME280;54319;52.038;4.640;2022-10-31T12:44:06;101724.13;;;15.87;96.36
67457;BME280;54319;52.038;4.640;2022-10-31T12:46:55;101709.28;;;15.80;96.38
67457;BME280;54319;52.038;4.640;2022-10-31T12:49:49;101705.88;;;15.75;97.07
67457;BME280;54319;52.038;4.640;2022-10-31T12:52:33;101690.06;;;15.72;97.75
67457;BME280;54319;52.038;4.640;2022-10-31T12:55:16;101689.19;;;15.71;97.14
67457;BME280;54319;52.038;4.640;2022-10-31T12:57:52;101677.81;;;15.66;97.67
67457;BME280;54319;52.038;4.640;2022-10-31T13:00:20;101669.94;;;15.63;97.98
67457;BME280;54319;52.038;4.640;2022-10-31T13:02:51;101672.59;;;15.63;98.14
67457;BME280;54319;52.038;4.640;2022-10-31T13:05:26;101663.91;;;15.56;97.73
67457;BME280;54319;52.038;4.640;2022-10-31T13:08:03;101660.47;;;15.53;98.05
67457;BME280;54319;52.038;4.640;2022-10-31T13:10:37;101645.56;;;15.50;98.59
67457;BME280;54319;52.038;4.640;2022-10-31T13:13:11;101648.97;;;15.55;98.75